Time,TemperatureF,DewpointF,PressureIn,WindDirection,WindDirectionDegrees,WindSpeedMPH,WindSpeedGustMPH,Humidity,HourlyPrecipIn,Conditions,Clouds,dailyrainin,SoftwareType,DateUTC
2013-05-18 00:00:00,73.3,51.0,29.79,NNE,23,4.0,8.0,45,0.00,,,0.00,weatherlink.com 1.10,2013-05-18 07:00:00,
2013-05-18 00:15:00,73.6,51.0,29.79,North,349,9.0,10.0,45,0.00,,,0.00,weatherlink.com 1.10,2013-05-18 07:15:00,
2013-05-18 00:30:00,73.3,51.0,29.79,NNE,30,5.0,13.0,46,0.00,,,0.00,weatherlink.com 1.10,2013-05-18 07:30:00,
2013-05-18 00:45:00,72.8,51.0,29.79,North,8,6.0,10.0,47,0.00,,,0.00,weatherlink.com 1.10,2013-05-18 07:45:00,
2013-05-18 01:00:00,72.7,52.0,29.79,NNE,26,5.0,11.0,48,0.00,,,0.00,weatherlink.com 1.10,2013-05-18 08:00:00,
2013-05-18 01:15:00,72.5,52.0,29.79,NE,49,6.0,12.0,48,0.00,,,0.00,weatherlink.com 1.10,2013-05-18 08:15:00,
2013-05-18 01:30:00,72.2,51.0,29.79,NNE,26,6.0,12.0,48,0.00,,,0.00,weatherlink.com 1.10,2013-05-18 08:30:00,
2013-05-18 01:45:00,72.0,51.0,29.79,North,8,1.0,11.0,48,0.00,,,0.00,weatherlink.com 1.10,2013-05-18 08:45:00,
2013-05-18 02:00:00,71.7,51.0,29.79,SE,142,1.0,6.0,49,0.00,,,0.00,weatherlink.com 1.10,2013-05-18 09:00:00,
2013-05-18 02:15:00,71.1,51.0,29.79,WNW,284,0.0,5.0,50,0.00,,,0.00,weatherlink.com 1.10,2013-05-18 09:15:00,
2013-05-18 02:30:00,70.9,51.0,29.79,SE,136,2.0,4.0,50,0.00,,,0.00,weatherlink.com 1.10,2013-05-18 09:30:00,
2013-05-18 02:45:00,70.6,51.0,29.79,SE,145,3.0,5.0,51,0.00,,,0.00,weatherlink.com 1.10,2013-05-18 09:45:00,
2013-05-18 03:00:00,69.9,51.0,29.80,SE,143,3.0,4.0,52,0.00,,,0.00,weatherlink.com 1.10,2013-05-18 10:00:00,
2013-05-18 03:15:00,69.6,52.0,29.80,South,176,4.0,8.0,53,0.00,,,0.00,weatherlink.com 1.10,2013-05-18 10:15:00,
2013-05-18 03:30:00,69.8,51.0,29.80,SSW,201,2.0,6.0,52,0.00,,,0.00,weatherlink.com 1.10,2013-05-18 10:30:00,
2013-05-18 03:45:00,69.4,51.0,29.80,SE,134,0.0,5.0,53,0.00,,,0.00,weatherlink.com 1.10,2013-05-18 10:45:00,
2013-05-18 04:00:00,67.8,52.0,29.81,ESE,110,0.0,1.0,57,0.00,,,0.00,weatherlink.com 1.10,2013-05-18 11:00:00,
2013-05-18 04:15:00,67.3,51.0,29.81,SE,143,0.0,2.0,57,0.00,,,0.00,weatherlink.com 1.10,2013-05-18 11:15:00,
2013-05-18 04:30:00,66.7,52.0,29.81,East,97,0.0,1.0,59,0.00,,,0.00,weatherlink.com 1.10,2013-05-18 11:30:00,
2013-05-18 04:45:00,66.1,52.0,29.81,SW,222,2.0,3.0,60,0.00,,,0.00,weatherlink.com 1.10,2013-05-18 11:45:00,
2013-05-18 05:00:00,66.7,52.0,29.81,SE,142,1.0,3.0,59,0.00,,,0.00,weatherlink.com 1.10,2013-05-18 12:00:00,
2013-05-18 05:15:00,66.9,51.0,29.82,SE,131,1.0,2.0,58,0.00,,,0.00,weatherlink.com 1.10,2013-05-18 12:15:00,
2013-05-18 05:31:00,65.8,52.0,29.83,East,93,0.0,1.0,61,0.00,,,0.00,weatherlink.com 1.10,2013-05-18 12:31:00,
2013-05-18 05:46:00,65.5,52.0,29.83,SE,129,1.0,2.0,61,0.00,,,0.00,weatherlink.com 1.10,2013-05-18 12:46:00,
2013-05-18 06:01:00,66.5,52.0,29.84,SE,142,2.0,3.0,60,0.00,,,0.00,weatherlink.com 1.10,2013-05-18 13:01:00,
2013-05-18 06:16:00,67.3,52.0,29.84,North,354,1.0,1.0,58,0.00,,,0.00,weatherlink.com 1.10,2013-05-18 13:16:00,
2013-05-18 06:31:00,69.2,53.0,29.85,North,354,0.0,0.0,56,0.00,,,0.00,weatherlink.com 1.10,2013-05-18 13:31:00,
2013-05-18 06:46:00,69.3,53.0,29.86,SE,139,2.0,4.0,56,0.00,,,0.00,weatherlink.com 1.10,2013-05-18 13:46:00,
2013-05-18 07:01:00,70.1,52.0,29.86,ESE,102,2.0,5.0,53,0.00,,,0.00,weatherlink.com 1.10,2013-05-18 14:01:00,
2013-05-18 07:16:00,71.5,53.0,29.86,East,87,0.0,2.0,52,0.00,,,0.00,weatherlink.com 1.10,2013-05-18 14:16:00,
2013-05-18 07:31:00,73.7,52.0,29.86,SE,135,1.0,2.0,46,0.00,,,0.00,weatherlink.com 1.10,2013-05-18 14:31:00,
2013-05-18 07:46:00,75.0,52.0,29.87,North,10,0.0,2.0,44,0.00,,,0.00,weatherlink.com 1.10,2013-05-18 14:46:00,
2013-05-18 08:01:00,74.3,52.0,29.87,ESE,122,0.0,4.0,45,0.00,,,0.00,weatherlink.com 1.10,2013-05-18 15:01:00,
2013-05-18 08:16:00,76.2,52.0,29.87,East,93,0.0,2.0,43,0.00,,,0.00,weatherlink.com 1.10,2013-05-18 15:16:00,
2013-05-18 08:31:00,78.1,52.0,29.87,SW,215,1.0,2.0,40,0.00,,,0.00,weatherlink.com 1.10,2013-05-18 15:31:00,
2013-05-18 08:46:00,78.6,52.0,29.88,ESE,108,2.0,2.0,39,0.00,,,0.00,weatherlink.com 1.10,2013-05-18 15:46:00,
2013-05-18 09:01:00,78.7,50.0,29.88,ESE,108,2.0,4.0,37,0.00,,,0.00,weatherlink.com 1.10,2013-05-18 16:01:00,
2013-05-18 09:16:00,78.9,50.0,29.88,SE,134,3.0,3.0,37,0.00,,,0.00,weatherlink.com 1.10,2013-05-18 16:16:00,
2013-05-18 09:31:00,80.0,49.0,29.88,SSW,208,2.0,3.0,34,0.00,,,0.00,weatherlink.com 1.10,2013-05-18 16:31:00,
2013-05-18 09:46:00,80.9,49.0,29.88,ESE,107,1.0,4.0,33,0.00,,,0.00,weatherlink.com 1.10,2013-05-18 16:46:00,
2013-05-18 10:01:00,81.6,49.0,29.88,ENE,74,1.0,4.0,32,0.00,,,0.00,weatherlink.com 1.10,2013-05-18 17:01:00,
2013-05-18 10:16:00,81.7,48.0,29.88,SSE,153,3.0,4.0,31,0.00,,,0.00,weatherlink.com 1.10,2013-05-18 17:16:00,
2013-05-18 10:31:00,84.1,49.0,29.88,East,97,2.0,4.0,29,0.00,,,0.00,weatherlink.com 1.10,2013-05-18 17:31:00,
2013-05-18 10:46:00,83.4,48.0,29.88,NNE,23,3.0,5.0,29,0.00,,,0.00,weatherlink.com 1.10,2013-05-18 17:46:00,
2013-05-18 11:01:00,84.1,48.0,29.88,East,101,3.0,6.0,28,0.00,,,0.00,weatherlink.com 1.10,2013-05-18 18:01:00,
2013-05-18 11:16:00,84.7,47.0,29.88,SW,232,1.0,3.0,27,0.00,,,0.00,weatherlink.com 1.10,2013-05-18 18:16:00,
2013-05-18 11:31:00,84.8,47.0,29.87,NNE,19,3.0,6.0,27,0.00,,,0.00,weatherlink.com 1.10,2013-05-18 18:31:00,
2013-05-18 11:46:00,86.0,48.0,29.87,ENE,75,1.0,3.0,27,0.00,,,0.00,weatherlink.com 1.10,2013-05-18 18:46:00,
2013-05-18 12:01:00,87.1,49.0,29.86,NE,34,2.0,6.0,27,0.00,,,0.00,weatherlink.com 1.10,2013-05-18 19:01:00,
2013-05-18 12:16:00,87.4,48.0,29.85,East,83,0.0,5.0,25,0.00,,,0.00,weatherlink.com 1.10,2013-05-18 19:16:00,
2013-05-18 12:31:00,87.6,47.0,29.85,SE,127,3.0,5.0,24,0.00,,,0.00,weatherlink.com 1.10,2013-05-18 19:31:00,
2013-05-18 12:46:00,87.9,47.0,29.84,NNW,328,4.0,6.0,24,0.00,,,0.00,weatherlink.com 1.10,2013-05-18 19:46:00,
2013-05-18 13:02:00,88.6,46.0,29.84,East,88,3.0,5.0,23,0.00,,,0.00,weatherlink.com 1.10,2013-05-18 20:02:00,
2013-05-18 13:17:00,89.6,46.0,29.83,ENE,71,2.0,5.0,22,0.00,,,0.00,weatherlink.com 1.10,2013-05-18 20:17:00,
2013-05-18 13:32:00,90.8,46.0,29.82,SE,136,1.0,5.0,21,0.00,,,0.00,weatherlink.com 1.10,2013-05-18 20:32:00,
2013-05-18 13:47:00,91.4,45.0,29.82,East,101,0.0,5.0,20,0.00,,,0.00,weatherlink.com 1.10,2013-05-18 20:47:00,
2013-05-18 14:02:00,92.3,44.0,29.81,NNE,13,4.0,5.0,19,0.00,,,0.00,weatherlink.com 1.10,2013-05-18 21:02:00,
2013-05-18 14:17:00,92.0,44.0,29.81,East,81,4.0,4.0,19,0.00,,,0.00,weatherlink.com 1.10,2013-05-18 21:17:00,
2013-05-18 14:32:00,92.9,44.0,29.81,ENE,72,1.0,5.0,18,0.00,,,0.00,weatherlink.com 1.10,2013-05-18 21:32:00,
2013-05-18 14:47:00,92.8,45.0,29.80,NNW,337,3.0,4.0,19,0.00,,,0.00,weatherlink.com 1.10,2013-05-18 21:47:00,
2013-05-18 15:02:00,92.6,45.0,29.79,SE,131,4.0,5.0,19,0.00,,,0.00,weatherlink.com 1.10,2013-05-18 22:02:00,
2013-05-18 15:17:00,94.5,43.0,29.79,North,8,1.0,3.0,17,0.00,,,0.00,weatherlink.com 1.10,2013-05-18 22:17:00,
2013-05-18 15:32:00,93.3,41.0,29.78,NNW,332,0.0,6.0,16,0.00,,,0.00,weatherlink.com 1.10,2013-05-18 22:32:00,
2013-05-18 15:47:00,94.4,43.0,29.78,East,101,1.0,4.0,17,0.00,,,0.00,weatherlink.com 1.10,2013-05-18 22:47:00,
2013-05-18 16:02:00,93.8,41.0,29.77,WNW,297,1.0,5.0,16,0.00,,,0.00,weatherlink.com 1.10,2013-05-18 23:02:00,
2013-05-18 16:17:00,94.4,42.0,29.77,SW,236,0.0,4.0,16,0.00,,,0.00,weatherlink.com 1.10,2013-05-18 23:17:00,
2013-05-18 16:32:00,94.0,43.0,29.77,ESE,107,2.0,5.0,17,0.00,,,0.00,weatherlink.com 1.10,2013-05-18 23:32:00,
2013-05-18 16:47:00,94.1,43.0,29.76,South,183,0.0,4.0,17,0.00,,,0.00,weatherlink.com 1.10,2013-05-18 23:47:00,
2013-05-18 17:02:00,94.0,44.0,29.76,East,86,0.0,8.0,18,0.00,,,0.00,weatherlink.com 1.10,2013-05-19 00:02:00,
2013-05-18 17:17:00,93.7,46.0,29.76,NE,39,6.0,7.0,19,0.00,,,0.00,weatherlink.com 1.10,2013-05-19 00:17:00,
2013-05-18 17:32:00,94.3,46.0,29.75,East,88,2.0,6.0,19,0.00,,,0.00,weatherlink.com 1.10,2013-05-19 00:32:00,
2013-05-18 17:47:00,92.9,46.0,29.75,North,356,1.0,5.0,20,0.00,,,0.00,weatherlink.com 1.10,2013-05-19 00:47:00,
2013-05-18 18:02:00,91.7,45.0,29.75,East,101,0.0,4.0,20,0.00,,,0.00,weatherlink.com 1.10,2013-05-19 01:02:00,
2013-05-18 18:17:00,90.9,47.0,29.75,North,359,2.0,4.0,22,0.00,,,0.00,weatherlink.com 1.10,2013-05-19 01:17:00,
2013-05-18 18:32:00,90.2,49.0,29.75,NNE,33,5.0,8.0,24,0.00,,,0.00,weatherlink.com 1.10,2013-05-19 01:32:00,
2013-05-18 18:47:00,89.6,48.0,29.75,NNE,28,2.0,7.0,24,0.00,,,0.00,weatherlink.com 1.10,2013-05-19 01:47:00,
2013-05-18 19:02:00,89.4,49.0,29.75,NNE,25,4.0,8.0,25,0.00,,,0.00,weatherlink.com 1.10,2013-05-19 02:02:00,
2013-05-18 19:17:00,88.6,50.0,29.76,NNW,334,9.0,10.0,26,0.00,,,0.00,weatherlink.com 1.10,2013-05-19 02:17:00,
2013-05-18 19:32:00,88.1,49.0,29.76,NNW,339,5.0,10.0,26,0.00,,,0.00,weatherlink.com 1.10,2013-05-19 02:32:00,
2013-05-18 19:47:00,87.6,49.0,29.77,NW,314,7.0,14.0,26,0.00,,,0.00,weatherlink.com 1.10,2013-05-19 02:47:00,
2013-05-18 20:02:00,87.1,48.0,29.77,SW,224,5.0,11.0,26,0.00,,,0.00,weatherlink.com 1.10,2013-05-19 03:02:00,
2013-05-18 20:17:00,86.8,48.0,29.77,WSW,254,5.0,9.0,26,0.00,,,0.00,weatherlink.com 1.10,2013-05-19 03:17:00,
2013-05-18 20:32:00,86.2,49.0,29.77,East,88,3.0,3.0,28,0.00,,,0.00,weatherlink.com 1.10,2013-05-19 03:32:00,
2013-05-18 20:47:00,84.5,49.0,29.77,NE,42,2.0,5.0,29,0.00,,,0.00,weatherlink.com 1.10,2013-05-19 03:47:00,
2013-05-18 21:02:00,84.1,48.0,29.77,NE,38,3.0,7.0,28,0.00,,,0.00,weatherlink.com 1.10,2013-05-19 04:02:00,
2013-05-18 21:17:00,83.1,49.0,29.78,NNE,15,7.0,11.0,30,0.00,,,0.00,weatherlink.com 1.10,2013-05-19 04:17:00,
2013-05-18 21:32:00,82.3,50.0,29.78,NE,37,5.0,12.0,32,0.00,,,0.00,weatherlink.com 1.10,2013-05-19 04:32:00,
2013-05-18 21:47:00,81.8,50.0,29.78,NE,53,3.0,11.0,33,0.00,,,0.00,weatherlink.com 1.10,2013-05-19 04:47:00,
2013-05-18 22:02:00,81.2,50.0,29.79,ESE,111,2.0,5.0,34,0.00,,,0.00,weatherlink.com 1.10,2013-05-19 05:02:00,
2013-05-18 22:17:00,80.4,51.0,29.79,WSW,246,5.0,6.0,36,0.00,,,0.00,weatherlink.com 1.10,2013-05-19 05:17:00,
2013-05-18 22:32:00,79.5,52.0,29.79,SE,127,2.0,5.0,38,0.00,,,0.00,weatherlink.com 1.10,2013-05-19 05:32:00,
2013-05-18 22:47:00,78.3,52.0,29.78,SSW,197,5.0,8.0,40,0.00,,,0.00,weatherlink.com 1.10,2013-05-19 05:47:00,
2013-05-18 23:02:00,78.1,52.0,29.79,South,174,2.0,5.0,41,0.00,,,0.00,weatherlink.com 1.10,2013-05-19 06:02:00,
2013-05-18 23:17:00,77.4,53.0,29.79,East,96,2.0,5.0,43,0.00,,,0.00,weatherlink.com 1.10,2013-05-19 06:17:00,
2013-05-18 23:32:00,76.4,53.0,29.79,SSW,193,6.0,6.0,44,0.00,,,0.00,weatherlink.com 1.10,2013-05-19 06:32:00,
2013-05-18 23:47:00,76.1,53.0,29.79,South,182,2.0,4.0,45,0.00,,,0.00,weatherlink.com 1.10,2013-05-19 06:47:00,